sensor_id;sensor_type;location;lat;lon;timestamp;P1;durP1;ratioP1;P2;durP2;ratioP2
70233;SDS011;57622;42.630;23.378;2022-08-11T00:00:04;6.88;;;3.90;;
70233;SDS011;57622;42.630;23.378;2022-08-11T00:02:43;7.82;;;4.00;;
70233;SDS011;57622;42.630;23.378;2022-08-11T00:05:12;8.10;;;4.20;;
70233;SDS011;57622;42.630;23.378;2022-08-11T00:07:52;8.35;;;4.15;;
70233;SDS011;57622;42.630;23.378;2022-08-11T00:10:22;8.77;;;4.40;;
70233;SDS011;57622;42.630;23.378;2022-08-11T00:12:51;8.38;;;4.43;;
70233;SDS011;57622;42.630;23.378;2022-08-11T00:15:20;8.13;;;3.95;;
70233;SDS011;57622;42.630;23.378;2022-08-11T00:17:47;11.18;;;4.15;;
70233;SDS011;57622;42.630;23.378;2022-08-11T00:20:14;8.25;;;3.92;;
70233;SDS011;57622;42.630;23.378;2022-08-11T00:22:42;9.30;;;4.20;;
70233;SDS011;57622;42.630;23.378;2022-08-11T00:25:10;9.50;;;4.95;;
70233;SDS011;57622;42.630;23.378;2022-08-11T00:27:38;8.57;;;4.20;;
70233;SDS011;57622;42.630;23.378;2022-08-11T00:30:05;8.77;;;4.43;;
70233;SDS011;57622;42.630;23.378;2022-08-11T00:32:32;9.40;;;4.60;;
70233;SDS011;57622;42.630;23.378;2022-08-11T00:34:59;9.10;;;4.40;;
70233;SDS011;57622;42.630;23.378;2022-08-11T00:37:26;7.72;;;4.20;;
70233;SDS011;57622;42.630;23.378;2022-08-11T00:39:53;8.05;;;4.22;;
70233;SDS011;57622;42.630;23.378;2022-08-11T00:47:47;9.48;;;4.25;;
70233;SDS011;57622;42.630;23.378;2022-08-11T00:50:46;9.10;;;4.10;;
70233;SDS011;57622;42.630;23.378;2022-08-11T00:53:37;8.52;;;4.72;;
70233;SDS011;57622;42.630;23.378;2022-08-11T01:01:33;8.52;;;4.78;;
70233;SDS011;57622;42.630;23.378;2022-08-11T01:29:33;8.55;;;4.40;;
70233;SDS011;57622;42.630;23.378;2022-08-11T01:50:06;7.70;;;4.20;;
70233;SDS011;57622;42.630;23.378;2022-08-11T02:11:35;8.13;;;4.90;;
70233;SDS011;57622;42.630;23.378;2022-08-11T02:19:17;9.40;;;5.07;;
70233;SDS011;57622;42.630;23.378;2022-08-11T02:22:08;9.45;;;4.93;;
70233;SDS011;57622;42.630;23.378;2022-08-11T02:25:03;10.00;;;4.88;;
70233;SDS011;57622;42.630;23.378;2022-08-11T02:27:38;9.45;;;4.97;;
70233;SDS011;57622;42.630;23.378;2022-08-11T02:30:12;8.60;;;4.85;;
70233;SDS011;57622;42.630;23.378;2022-08-11T02:35:27;9.38;;;4.60;;
70233;SDS011;57622;42.630;23.378;2022-08-11T02:41:15;9.27;;;5.10;;
70233;SDS011;57622;42.630;23.378;2022-08-11T02:46:51;8.45;;;4.75;;
70233;SDS011;57622;42.630;23.378;2022-08-11T02:55:07;9.75;;;5.00;;
70233;SDS011;57622;42.630;23.378;2022-08-11T03:00:23;10.05;;;5.10;;
70233;SDS011;57622;42.630;23.378;2022-08-11T03:08:38;11.23;;;5.28;;
70233;SDS011;57622;42.630;23.378;2022-08-11T03:11:25;9.25;;;5.40;;
70233;SDS011;57622;42.630;23.378;2022-08-11T03:14:33;9.05;;;5.13;;
70233;SDS011;57622;42.630;23.378;2022-08-11T03:17:27;10.23;;;5.40;;
70233;SDS011;57622;42.630;23.378;2022-08-11T03:22:50;9.88;;;5.43;;
70233;SDS011;57622;42.630;23.378;2022-08-11T03:33:36;9.98;;;5.60;;
70233;SDS011;57622;42.630;23.378;2022-08-11T03:44:32;13.13;;;5.60;;
70233;SDS011;57622;42.630;23.378;2022-08-11T03:52:22;8.55;;;5.15;;
70233;SDS011;57622;42.630;23.378;2022-08-11T04:04:04;14.02;;;5.55;;
70233;SDS011;57622;42.630;23.378;2022-08-11T04:09:40;12.15;;;6.10;;
70233;SDS011;57622;42.630;23.378;2022-08-11T04:18:17;9.50;;;5.32;;
70233;SDS011;57622;42.630;23.378;2022-08-11T04:44:19;10.02;;;5.50;;
70233;SDS011;57622;42.630;23.378;2022-08-11T04:47:32;10.63;;;5.63;;
70233;SDS011;57622;42.630;23.378;2022-08-11T04:50:34;10.05;;;5.68;;
70233;SDS011;57622;42.630;23.378;2022-08-11T04:56:33;9.32;;;5.57;;
70233;SDS011;57622;42.630;23.378;2022-08-11T05:02:22;14.63;;;6.10;;
70233;SDS011;57622;42.630;23.378;2022-08-11T05:16:57;12.32;;;6.30;;
70233;SDS011;57622;42.630;23.378;2022-08-11T05:19:46;10.05;;;5.93;;
70233;SDS011;57622;42.630;23.378;2022-08-11T05:22:31;11.82;;;6.38;;
70233;SDS011;57622;42.630;23.378;2022-08-11T05:25:26;11.30;;;6.03;;
70233;SDS011;57622;42.630;23.378;2022-08-11T05:28:15;9.70;;;5.45;;
70233;SDS011;57622;42.630;23.378;2022-08-11T05:31:06;10.43;;;5.45;;
70233;SDS011;57622;42.630;23.378;2022-08-11T05:33:56;11.80;;;5.82;;
70233;SDS011;57622;42.630;23.378;2022-08-11T05:36:44;10.80;;;5.88;;
70233;SDS011;57622;42.630;23.378;2022-08-11T05:39:15;11.77;;;5.95;;
70233;SDS011;57622;42.630;23.378;2022-08-11T05:44:47;10.65;;;6.03;;
70233;SDS011;57622;42.630;23.378;2022-08-11T05:47:34;10.63;;;5.72;;
70233;SDS011;57622;42.630;23.378;2022-08-11T05:50:19;11.48;;;5.30;;
70233;SDS011;57622;42.630;23.378;2022-08-11T05:53:08;10.57;;;5.38;;
70233;SDS011;57622;42.630;23.378;2022-08-11T05:55:53;12.63;;;5.72;;
70233;SDS011;57622;42.630;23.378;2022-08-11T05:58:39;11.68;;;5.63;;
70233;SDS011;57622;42.630;23.378;2022-08-11T06:01:06;9.93;;;5.90;;
70233;SDS011;57622;42.630;23.378;2022-08-11T06:03:33;11.77;;;5.35;;
70233;SDS011;57622;42.630;23.378;2022-08-11T06:06:21;12.02;;;5.38;;
70233;SDS011;57622;42.630;23.378;2022-08-11T06:08:47;8.75;;;4.88;;
70233;SDS011;57622;42.630;23.378;2022-08-11T06:11:14;9.95;;;4.90;;
70233;SDS011;57622;42.630;23.378;2022-08-11T06:13:44;9.82;;;4.97;;
70233;SDS011;57622;42.630;23.378;2022-08-11T06:16:11;14.43;;;5.75;;
70233;SDS011;57622;42.630;23.378;2022-08-11T06:18:39;10.07;;;5.10;;
70233;SDS011;57622;42.630;23.378;2022-08-11T06:21:10;8.00;;;4.47;;
70233;SDS011;57622;42.630;23.378;2022-08-11T06:23:36;10.48;;;4.47;;
70233;SDS011;57622;42.630;23.378;2022-08-11T06:26:10;11.53;;;4.43;;
70233;SDS011;57622;42.630;23.378;2022-08-11T06:28:38;10.68;;;4.63;;
70233;SDS011;57622;42.630;23.378;2022-08-11T06:36:30;10.32;;;4.35;;
70233;SDS011;57622;42.630;23.378;2022-08-11T06:41:45;9.93;;;4.30;;
70233;SDS011;57622;42.630;23.378;2022-08-11T06:44:15;8.65;;;4.35;;
70233;SDS011;57622;42.630;23.378;2022-08-11T06:46:48;11.23;;;4.13;;
70233;SDS011;57622;42.630;23.378;2022-08-11T06:52:04;9.88;;;4.60;;
70233;SDS011;57622;42.630;23.378;2022-08-11T06:54:36;9.02;;;4.70;;
70233;SDS011;57622;42.630;23.378;2022-08-11T06:57:10;10.90;;;4.30;;
70233;SDS011;57622;42.630;23.378;2022-08-11T06:59:56;9.88;;;4.57;;
70233;SDS011;57622;42.630;23.378;2022-08-11T07:05:07;9.05;;;4.63;;
70233;SDS011;57622;42.630;23.378;2022-08-11T07:13:42;8.95;;;4.20;;
70233;SDS011;57622;42.630;23.378;2022-08-11T07:23:11;7.55;;;3.92;;
70233;SDS011;57622;42.630;23.378;2022-08-11T07:25:56;7.47;;;3.63;;
70233;SDS011;57622;42.630;23.378;2022-08-11T07:28:44;9.43;;;3.78;;
70233;SDS011;57622;42.630;23.378;2022-08-11T07:34:15;8.32;;;4.05;;
70233;SDS011;57622;42.630;23.378;2022-08-11T07:37:13;8.85;;;3.92;;
70233;SDS011;57622;42.630;23.378;2022-08-11T07:39:42;8.25;;;3.90;;
70233;SDS011;57622;42.630;23.378;2022-08-11T07:42:10;7.43;;;3.65;;
70233;SDS011;57622;42.630;23.378;2022-08-11T07:44:39;8.45;;;4.10;;
70233;SDS011;57622;42.630;23.378;2022-08-11T07:47:24;7.60;;;3.55;;
70233;SDS011;57622;42.630;23.378;2022-08-11T07:50:10;8.85;;;3.50;;
70233;SDS011;57622;42.630;23.378;2022-08-11T07:52:55;7.32;;;3.80;;
70233;SDS011;57622;42.630;23.378;2022-08-11T07:55:22;7.82;;;4.05;;
70233;SDS011;57622;42.630;23.378;2022-08-11T07:57:49;10.13;;;3.90;;
70233;SDS011;57622;42.630;23.378;2022-08-11T08:03:47;7.28;;;3.60;;
70233;SDS011;57622;42.630;23.378;2022-08-11T08:06:31;9.00;;;3.88;;
70233;SDS011;57622;42.630;23.378;2022-08-11T08:09:17;7.53;;;3.75;;
70233;SDS011;57622;42.630;23.378;2022-08-11T08:12:03;9.77;;;3.80;;
70233;SDS011;57622;42.630;23.378;2022-08-11T08:14:49;8.38;;;3.50;;
70233;SDS011;57622;42.630;23.378;2022-08-11T08:17:35;8.73;;;3.78;;
70233;SDS011;57622;42.630;23.378;2022-08-11T08:20:17;7.97;;;3.88;;
70233;SDS011;57622;42.630;23.378;2022-08-11T08:22:48;7.50;;;3.53;;
70233;SDS011;57622;42.630;23.378;2022-08-11T08:25:30;9.63;;;3.90;;
70233;SDS011;57622;42.630;23.378;2022-08-11T08:27:58;6.38;;;3.28;;
70233;SDS011;57622;42.630;23.378;2022-08-11T08:30:26;7.43;;;3.50;;
70233;SDS011;57622;42.630;23.378;2022-08-11T08:33:11;8.20;;;4.18;;
70233;SDS011;57622;42.630;23.378;2022-08-11T08:35:40;8.95;;;4.05;;
70233;SDS011;57622;42.630;23.378;2022-08-11T08:38:06;8.02;;;3.45;;
70233;SDS011;57622;42.630;23.378;2022-08-11T08:40:32;8.88;;;3.65;;
70233;SDS011;57622;42.630;23.378;2022-08-11T08:43:03;7.75;;;3.50;;
70233;SDS011;57622;42.630;23.378;2022-08-11T08:45:34;7.47;;;3.55;;
70233;SDS011;57622;42.630;23.378;2022-08-11T08:50:34;10.93;;;3.60;;
70233;SDS011;57622;42.630;23.378;2022-08-11T08:53:22;7.47;;;3.63;;
70233;SDS011;57622;42.630;23.378;2022-08-11T08:55:54;8.05;;;3.72;;
70233;SDS011;57622;42.630;23.378;2022-08-11T08:58:22;7.50;;;3.55;;
70233;SDS011;57622;42.630;23.378;2022-08-11T09:00:49;8.52;;;3.90;;
70233;SDS011;57622;42.630;23.378;2022-08-11T09:03:17;7.28;;;3.40;;
70233;SDS011;57622;42.630;23.378;2022-08-11T09:05:43;8.15;;;3.90;;
70233;SDS011;57622;42.630;23.378;2022-08-11T09:08:11;8.90;;;3.63;;
70233;SDS011;57622;42.630;23.378;2022-08-11T09:10:40;7.05;;;3.72;;
70233;SDS011;57622;42.630;23.378;2022-08-11T09:15:33;9.50;;;4.10;;
70233;SDS011;57622;42.630;23.378;2022-08-11T09:23:03;8.50;;;3.92;;
70233;SDS011;57622;42.630;23.378;2022-08-11T09:25:55;9.05;;;4.03;;
70233;SDS011;57622;42.630;23.378;2022-08-11T09:28:41;7.70;;;3.58;;
70233;SDS011;57622;42.630;23.378;2022-08-11T09:31:08;7.75;;;3.75;;
70233;SDS011;57622;42.630;23.378;2022-08-11T09:33:36;8.20;;;3.90;;
70233;SDS011;57622;42.630;23.378;2022-08-11T09:36:02;8.15;;;3.75;;
70233;SDS011;57622;42.630;23.378;2022-08-11T09:38:49;8.95;;;4.00;;
70233;SDS011;57622;42.630;23.378;2022-08-11T09:41:35;8.00;;;3.72;;
70233;SDS011;57622;42.630;23.378;2022-08-11T09:44:01;7.57;;;3.88;;
70233;SDS011;57622;42.630;23.378;2022-08-11T09:46:45;7.40;;;3.83;;
70233;SDS011;57622;42.630;23.378;2022-08-11T09:49:12;7.60;;;3.80;;
70233;SDS011;57622;42.630;23.378;2022-08-11T09:51:38;8.98;;;4.03;;
70233;SDS011;57622;42.630;23.378;2022-08-11T09:54:05;10.07;;;3.90;;
70233;SDS011;57622;42.630;23.378;2022-08-11T09:56:31;9.63;;;3.67;;
70233;SDS011;57622;42.630;23.378;2022-08-11T09:59:16;7.88;;;3.90;;
70233;SDS011;57622;42.630;23.378;2022-08-11T10:01:45;8.10;;;3.72;;
70233;SDS011;57622;42.630;23.378;2022-08-11T10:06:50;7.45;;;3.50;;
70233;SDS011;57622;42.630;23.378;2022-08-11T10:12:11;9.93;;;3.65;;
70233;SDS011;57622;42.630;23.378;2022-08-11T10:14:44;7.63;;;3.83;;
70233;SDS011;57622;42.630;23.378;2022-08-11T10:17:33;7.53;;;3.75;;
70233;SDS011;57622;42.630;23.378;2022-08-11T10:20:00;8.65;;;3.63;;
70233;SDS011;57622;42.630;23.378;2022-08-11T10:22:32;6.68;;;3.60;;
70233;SDS011;57622;42.630;23.378;2022-08-11T10:25:17;10.32;;;3.90;;
70233;SDS011;57622;42.630;23.378;2022-08-11T10:28:03;11.40;;;3.80;;
70233;SDS011;57622;42.630;23.378;2022-08-11T10:30:31;8.65;;;3.83;;
70233;SDS011;57622;42.630;23.378;2022-08-11T10:33:15;10.18;;;4.13;;
70233;SDS011;57622;42.630;23.378;2022-08-11T10:36:01;8.13;;;4.00;;
70233;SDS011;57622;42.630;23.378;2022-08-11T10:38:27;10.77;;;3.83;;
70233;SDS011;57622;42.630;23.378;2022-08-11T10:40:54;10.18;;;4.03;;
70233;SDS011;57622;42.630;23.378;2022-08-11T10:43:38;7.07;;;3.85;;
70233;SDS011;57622;42.630;23.378;2022-08-11T10:46:08;10.43;;;4.10;;
70233;SDS011;57622;42.630;23.378;2022-08-11T10:51:20;7.70;;;4.05;;
70233;SDS011;57622;42.630;23.378;2022-08-11T10:53:47;8.73;;;4.10;;
70233;SDS011;57622;42.630;23.378;2022-08-11T10:56:34;8.50;;;4.10;;
70233;SDS011;57622;42.630;23.378;2022-08-11T10:59:19;11.55;;;4.10;;
70233;SDS011;57622;42.630;23.378;2022-08-11T11:01:47;8.30;;;4.28;;
70233;SDS011;57622;42.630;23.378;2022-08-11T11:04:15;7.55;;;3.90;;
70233;SDS011;57622;42.630;23.378;2022-08-11T11:09:29;6.93;;;3.70;;
70233;SDS011;57622;42.630;23.378;2022-08-11T11:15:06;7.50;;;3.60;;
70233;SDS011;57622;42.630;23.378;2022-08-11T11:20:44;7.43;;;3.70;;
70233;SDS011;57622;42.630;23.378;2022-08-11T11:24:22;9.30;;;3.63;;
70233;SDS011;57622;42.630;23.378;2022-08-11T11:26:51;7.05;;;3.67;;
70233;SDS011;57622;42.630;23.378;2022-08-11T11:29:45;7.07;;;3.40;;
70233;SDS011;57622;42.630;23.378;2022-08-11T11:32:24;8.65;;;3.83;;
70233;SDS011;57622;42.630;23.378;2022-08-11T11:35:15;5.95;;;3.00;;
70233;SDS011;57622;42.630;23.378;2022-08-11T11:37:50;7.75;;;3.45;;
70233;SDS011;57622;42.630;23.378;2022-08-11T11:40:17;9.57;;;3.65;;
70233;SDS011;57622;42.630;23.378;2022-08-11T11:42:45;7.30;;;3.50;;
70233;SDS011;57622;42.630;23.378;2022-08-11T11:45:17;10.75;;;3.95;;
70233;SDS011;57622;42.630;23.378;2022-08-11T11:50:10;7.38;;;3.70;;
70233;SDS011;57622;42.630;23.378;2022-08-11T11:52:37;8.05;;;3.72;;
70233;SDS011;57622;42.630;23.378;2022-08-11T11:55:04;9.70;;;4.10;;
70233;SDS011;57622;42.630;23.378;2022-08-11T11:57:31;10.52;;;3.78;;
70233;SDS011;57622;42.630;23.378;2022-08-11T12:00:16;7.75;;;3.38;;
70233;SDS011;57622;42.630;23.378;2022-08-11T12:03:02;9.15;;;3.95;;
70233;SDS011;57622;42.630;23.378;2022-08-11T12:05:32;7.13;;;3.45;;
70233;SDS011;57622;42.630;23.378;2022-08-11T12:07:58;9.10;;;4.30;;
70233;SDS011;57622;42.630;23.378;2022-08-11T12:10:43;6.90;;;3.78;;
70233;SDS011;57622;42.630;23.378;2022-08-11T12:13:11;8.18;;;4.15;;
70233;SDS011;57622;42.630;23.378;2022-08-11T12:15:57;7.32;;;3.42;;
70233;SDS011;57622;42.630;23.378;2022-08-11T12:18:28;7.78;;;4.10;;
70233;SDS011;57622;42.630;23.378;2022-08-11T12:20:56;8.82;;;3.85;;
70233;SDS011;57622;42.630;23.378;2022-08-11T12:23:23;9.05;;;4.05;;
70233;SDS011;57622;42.630;23.378;2022-08-11T12:26:17;8.60;;;3.90;;
70233;SDS011;57622;42.630;23.378;2022-08-11T12:29:03;9.15;;;3.78;;
70233;SDS011;57622;42.630;23.378;2022-08-11T12:34:18;7.47;;;3.58;;
70233;SDS011;57622;42.630;23.378;2022-08-11T12:39:20;9.15;;;3.65;;
70233;SDS011;57622;42.630;23.378;2022-08-11T12:42:08;7.07;;;3.63;;
70233;SDS011;57622;42.630;23.378;2022-08-11T12:44:54;8.40;;;4.00;;
70233;SDS011;57622;42.630;23.378;2022-08-11T12:47:42;11.27;;;3.75;;
70233;SDS011;57622;42.630;23.378;2022-08-11T12:50:29;8.95;;;3.83;;
70233;SDS011;57622;42.630;23.378;2022-08-11T12:53:34;12.15;;;3.92;;
70233;SDS011;57622;42.630;23.378;2022-08-11T12:56:04;8.52;;;3.50;;
70233;SDS011;57622;42.630;23.378;2022-08-11T12:58:50;8.82;;;3.78;;
70233;SDS011;57622;42.630;23.378;2022-08-11T13:01:17;8.60;;;3.88;;
70233;SDS011;57622;42.630;23.378;2022-08-11T13:04:02;7.53;;;3.67;;
70233;SDS011;57622;42.630;23.378;2022-08-11T13:06:48;9.05;;;3.72;;
70233;SDS011;57622;42.630;23.378;2022-08-11T13:09:15;7.10;;;3.20;;
70233;SDS011;57622;42.630;23.378;2022-08-11T13:11:41;9.60;;;3.67;;
70233;SDS011;57622;42.630;23.378;2022-08-11T13:14:28;10.40;;;3.58;;
70233;SDS011;57622;42.630;23.378;2022-08-11T13:16:57;9.38;;;3.63;;
70233;SDS011;57622;42.630;23.378;2022-08-11T13:19:42;7.40;;;3.30;;
70233;SDS011;57622;42.630;23.378;2022-08-11T13:22:09;6.72;;;3.33;;
70233;SDS011;57622;42.630;23.378;2022-08-11T13:24:36;10.05;;;3.38;;
70233;SDS011;57622;42.630;23.378;2022-08-11T13:27:03;9.32;;;3.60;;
70233;SDS011;57622;42.630;23.378;2022-08-11T13:29:29;9.57;;;3.70;;
70233;SDS011;57622;42.630;23.378;2022-08-11T13:31:56;7.90;;;3.55;;
70233;SDS011;57622;42.630;23.378;2022-08-11T13:34:23;7.45;;;3.22;;
70233;SDS011;57622;42.630;23.378;2022-08-11T13:36:52;8.40;;;3.58;;
70233;SDS011;57622;42.630;23.378;2022-08-11T13:39:20;6.47;;;3.40;;
70233;SDS011;57622;42.630;23.378;2022-08-11T13:41:47;8.95;;;4.07;;
70233;SDS011;57622;42.630;23.378;2022-08-11T13:44:14;8.50;;;3.42;;
70233;SDS011;57622;42.630;23.378;2022-08-11T13:46:41;10.53;;;3.93;;
70233;SDS011;57622;42.630;23.378;2022-08-11T13:49:08;6.38;;;3.08;;
70233;SDS011;57622;42.630;23.378;2022-08-11T13:51:37;8.77;;;3.90;;
70233;SDS011;57622;42.630;23.378;2022-08-11T13:56:38;9.05;;;3.33;;
70233;SDS011;57622;42.630;23.378;2022-08-11T13:59:08;6.18;;;3.10;;
70233;SDS011;57622;42.630;23.378;2022-08-11T14:01:36;7.95;;;3.03;;
70233;SDS011;57622;42.630;23.378;2022-08-11T14:04:08;7.18;;;3.30;;
70233;SDS011;57622;42.630;23.378;2022-08-11T14:06:47;8.25;;;3.55;;
70233;SDS011;57622;42.630;23.378;2022-08-11T14:09:22;8.13;;;3.50;;
70233;SDS011;57622;42.630;23.378;2022-08-11T14:11:50;6.90;;;3.10;;
70233;SDS011;57622;42.630;23.378;2022-08-11T14:14:39;7.75;;;3.15;;
70233;SDS011;57622;42.630;23.378;2022-08-11T14:17:06;7.75;;;3.20;;
70233;SDS011;57622;42.630;23.378;2022-08-11T14:19:34;5.43;;;2.80;;
70233;SDS011;57622;42.630;23.378;2022-08-11T14:22:03;7.45;;;2.97;;
70233;SDS011;57622;42.630;23.378;2022-08-11T14:24:33;8.88;;;3.75;;
70233;SDS011;57622;42.630;23.378;2022-08-11T14:27:04;8.27;;;3.25;;
70233;SDS011;57622;42.630;23.378;2022-08-11T14:29:31;5.90;;;3.10;;
70233;SDS011;57622;42.630;23.378;2022-08-11T14:32:03;7.43;;;3.25;;
70233;SDS011;57622;42.630;23.378;2022-08-11T14:34:30;6.47;;;3.15;;
70233;SDS011;57622;42.630;23.378;2022-08-11T14:37:05;6.00;;;3.00;;
70233;SDS011;57622;42.630;23.378;2022-08-11T14:42:05;6.43;;;2.80;;
70233;SDS011;57622;42.630;23.378;2022-08-11T14:44:51;6.35;;;3.20;;
70233;SDS011;57622;42.630;23.378;2022-08-11T14:47:39;7.68;;;3.00;;
70233;SDS011;57622;42.630;23.378;2022-08-11T14:50:10;7.90;;;3.42;;
70233;SDS011;57622;42.630;23.378;2022-08-11T14:52:43;7.75;;;3.67;;
70233;SDS011;57622;42.630;23.378;2022-08-11T14:55:13;8.75;;;3.40;;
70233;SDS011;57622;42.630;23.378;2022-08-11T14:57:57;8.85;;;2.90;;
70233;SDS011;57622;42.630;23.378;2022-08-11T15:00:24;6.88;;;2.97;;
70233;SDS011;57622;42.630;23.378;2022-08-11T15:02:50;5.43;;;2.90;;
70233;SDS011;57622;42.630;23.378;2022-08-11T15:05:38;6.47;;;3.15;;
70233;SDS011;57622;42.630;23.378;2022-08-11T15:08:12;6.72;;;3.40;;
70233;SDS011;57622;42.630;23.378;2022-08-11T15:10:39;6.30;;;3.22;;
70233;SDS011;57622;42.630;23.378;2022-08-11T15:13:04;8.52;;;3.33;;
70233;SDS011;57622;42.630;23.378;2022-08-11T15:15:31;7.55;;;3.45;;
70233;SDS011;57622;42.630;23.378;2022-08-11T15:18:16;7.75;;;3.38;;
70233;SDS011;57622;42.630;23.378;2022-08-11T15:20:43;7.43;;;3.30;;
70233;SDS011;57622;42.630;23.378;2022-08-11T15:23:28;8.18;;;3.35;;
70233;SDS011;57622;42.630;23.378;2022-08-11T15:26:14;8.05;;;3.60;;
70233;SDS011;57622;42.630;23.378;2022-08-11T15:28:46;8.98;;;3.55;;
70233;SDS011;57622;42.630;23.378;2022-08-11T15:31:32;7.03;;;3.70;;
70233;SDS011;57622;42.630;23.378;2022-08-11T15:34:34;10.35;;;3.72;;
70233;SDS011;57622;42.630;23.378;2022-08-11T15:37:18;9.63;;;3.90;;
70233;SDS011;57622;42.630;23.378;2022-08-11T15:39:52;7.10;;;3.60;;
70233;SDS011;57622;42.630;23.378;2022-08-11T15:42:49;9.30;;;3.70;;
70233;SDS011;57622;42.630;23.378;2022-08-11T15:45:39;12.98;;;3.72;;
70233;SDS011;57622;42.630;23.378;2022-08-11T15:48:15;6.68;;;3.25;;
70233;SDS011;57622;42.630;23.378;2022-08-11T15:50:46;8.70;;;4.20;;
70233;SDS011;57622;42.630;23.378;2022-08-11T15:53:26;7.80;;;3.80;;
70233;SDS011;57622;42.630;23.378;2022-08-11T15:55:57;10.43;;;4.10;;
70233;SDS011;57622;42.630;23.378;2022-08-11T15:58:25;8.80;;;4.15;;
70233;SDS011;57622;42.630;23.378;2022-08-11T16:01:14;8.77;;;4.40;;
70233;SDS011;57622;42.630;23.378;2022-08-11T16:04:03;8.25;;;3.53;;
70233;SDS011;57622;42.630;23.378;2022-08-11T16:06:47;9.15;;;3.80;;
70233;SDS011;57622;42.630;23.378;2022-08-11T16:09:13;9.45;;;3.95;;
70233;SDS011;57622;42.630;23.378;2022-08-11T16:11:41;8.25;;;3.60;;
70233;SDS011;57622;42.630;23.378;2022-08-11T16:14:08;9.85;;;4.40;;
70233;SDS011;57622;42.630;23.378;2022-08-11T16:16:54;12.05;;;3.90;;
70233;SDS011;57622;42.630;23.378;2022-08-11T16:19:22;8.32;;;3.75;;
70233;SDS011;57622;42.630;23.378;2022-08-11T16:21:51;8.30;;;3.97;;
70233;SDS011;57622;42.630;23.378;2022-08-11T16:24:18;8.35;;;3.83;;
70233;SDS011;57622;42.630;23.378;2022-08-11T16:26:44;13.90;;;3.60;;
70233;SDS011;57622;42.630;23.378;2022-08-11T16:29:11;9.73;;;3.22;;
70233;SDS011;57622;42.630;23.378;2022-08-11T16:31:37;8.25;;;3.58;;
70233;SDS011;57622;42.630;23.378;2022-08-11T16:34:05;15.75;;;4.82;;
70233;SDS011;57622;42.630;23.378;2022-08-11T16:36:52;11.63;;;5.60;;
70233;SDS011;57622;42.630;23.378;2022-08-11T16:39:38;10.30;;;5.55;;
70233;SDS011;57622;42.630;23.378;2022-08-11T16:42:05;13.98;;;5.80;;
70233;SDS011;57622;42.630;23.378;2022-08-11T16:44:50;11.45;;;5.45;;
70233;SDS011;57622;42.630;23.378;2022-08-11T16:47:35;14.35;;;7.75;;
70233;SDS011;57622;42.630;23.378;2022-08-11T16:50:01;8.95;;;3.97;;
70233;SDS011;57622;42.630;23.378;2022-08-11T16:52:27;8.23;;;4.00;;
70233;SDS011;57622;42.630;23.378;2022-08-11T16:54:52;8.60;;;3.65;;
70233;SDS011;57622;42.630;23.378;2022-08-11T16:57:22;9.13;;;3.50;;
70233;SDS011;57622;42.630;23.378;2022-08-11T17:00:08;8.32;;;4.20;;
70233;SDS011;57622;42.630;23.378;2022-08-11T17:02:39;7.25;;;3.75;;
70233;SDS011;57622;42.630;23.378;2022-08-11T17:05:25;9.57;;;3.50;;
70233;SDS011;57622;42.630;23.378;2022-08-11T17:08:11;6.90;;;3.70;;
70233;SDS011;57622;42.630;23.378;2022-08-11T17:11:01;8.80;;;3.47;;
70233;SDS011;57622;42.630;23.378;2022-08-11T17:16:18;7.63;;;3.40;;
70233;SDS011;57622;42.630;23.378;2022-08-11T17:18:57;7.68;;;3.35;;
70233;SDS011;57622;42.630;23.378;2022-08-11T17:24:03;7.22;;;3.70;;
70233;SDS011;57622;42.630;23.378;2022-08-11T17:26:38;7.72;;;3.47;;
70233;SDS011;57622;42.630;23.378;2022-08-11T17:29:29;7.28;;;3.40;;
70233;SDS011;57622;42.630;23.378;2022-08-11T17:31:58;7.13;;;3.38;;
70233;SDS011;57622;42.630;23.378;2022-08-11T17:34:45;9.45;;;3.35;;
70233;SDS011;57622;42.630;23.378;2022-08-11T17:37:31;9.48;;;3.40;;
70233;SDS011;57622;42.630;23.378;2022-08-11T17:39:59;12.18;;;4.00;;
70233;SDS011;57622;42.630;23.378;2022-08-11T17:42:28;10.43;;;3.95;;
70233;SDS011;57622;42.630;23.378;2022-08-11T17:45:14;7.80;;;3.40;;
70233;SDS011;57622;42.630;23.378;2022-08-11T17:48:00;8.63;;;3.63;;
70233;SDS011;57622;42.630;23.378;2022-08-11T17:50:46;7.50;;;3.38;;
70233;SDS011;57622;42.630;23.378;2022-08-11T17:53:13;7.13;;;3.70;;
70233;SDS011;57622;42.630;23.378;2022-08-11T17:55:59;9.98;;;4.70;;
70233;SDS011;57622;42.630;23.378;2022-08-11T17:58:45;9.48;;;3.70;;
70233;SDS011;57622;42.630;23.378;2022-08-11T18:01:31;9.95;;;3.50;;
70233;SDS011;57622;42.630;23.378;2022-08-11T18:03:59;10.93;;;3.50;;
70233;SDS011;57622;42.630;23.378;2022-08-11T18:06:29;7.50;;;3.50;;
70233;SDS011;57622;42.630;23.378;2022-08-11T18:08:56;10.30;;;3.60;;
70233;SDS011;57622;42.630;23.378;2022-08-11T18:11:42;7.05;;;3.40;;
70233;SDS011;57622;42.630;23.378;2022-08-11T18:14:30;7.35;;;3.30;;
70233;SDS011;57622;42.630;23.378;2022-08-11T18:17:15;7.47;;;3.50;;
70233;SDS011;57622;42.630;23.378;2022-08-11T18:20:00;9.13;;;3.67;;
70233;SDS011;57622;42.630;23.378;2022-08-11T18:22:44;9.88;;;3.63;;
70233;SDS011;57622;42.630;23.378;2022-08-11T18:25:31;7.60;;;3.53;;
70233;SDS011;57622;42.630;23.378;2022-08-11T18:28:23;8.70;;;3.30;;
70233;SDS011;57622;42.630;23.378;2022-08-11T18:31:10;6.03;;;3.10;;
70233;SDS011;57622;42.630;23.378;2022-08-11T18:33:57;7.25;;;3.30;;
70233;SDS011;57622;42.630;23.378;2022-08-11T18:36:50;8.17;;;3.23;;
70233;SDS011;57622;42.630;23.378;2022-08-11T18:39:41;6.25;;;3.08;;
70233;SDS011;57622;42.630;23.378;2022-08-11T18:42:28;7.35;;;3.60;;
70233;SDS011;57622;42.630;23.378;2022-08-11T18:45:15;7.70;;;3.30;;
70233;SDS011;57622;42.630;23.378;2022-08-11T18:48:03;6.72;;;3.13;;
70233;SDS011;57622;42.630;23.378;2022-08-11T18:50:52;6.20;;;3.50;;
70233;SDS011;57622;42.630;23.378;2022-08-11T18:53:39;6.35;;;3.22;;
70233;SDS011;57622;42.630;23.378;2022-08-11T18:56:26;8.77;;;3.33;;
70233;SDS011;57622;42.630;23.378;2022-08-11T18:59:13;9.20;;;3.50;;
70233;SDS011;57622;42.630;23.378;2022-08-11T19:02:03;5.97;;;2.97;;
70233;SDS011;57622;42.630;23.378;2022-08-11T19:04:48;7.05;;;3.30;;
70233;SDS011;57622;42.630;23.378;2022-08-11T19:07:32;7.70;;;3.60;;
70233;SDS011;57622;42.630;23.378;2022-08-11T19:10:17;8.65;;;4.35;;
70233;SDS011;57622;42.630;23.378;2022-08-11T19:13:03;8.77;;;3.90;;
70233;SDS011;57622;42.630;23.378;2022-08-11T19:15:51;7.70;;;3.80;;
70233;SDS011;57622;42.630;23.378;2022-08-11T19:18:36;8.45;;;3.60;;
70233;SDS011;57622;42.630;23.378;2022-08-11T19:21:22;9.20;;;3.60;;
70233;SDS011;57622;42.630;23.378;2022-08-11T19:24:06;7.18;;;3.55;;
70233;SDS011;57622;42.630;23.378;2022-08-11T19:26:51;7.95;;;3.63;;
70233;SDS011;57622;42.630;23.378;2022-08-11T19:29:36;7.13;;;3.30;;
70233;SDS011;57622;42.630;23.378;2022-08-11T19:32:21;8.02;;;3.22;;
70233;SDS011;57622;42.630;23.378;2022-08-11T19:35:06;8.38;;;3.70;;
70233;SDS011;57622;42.630;23.378;2022-08-11T19:37:52;6.80;;;3.55;;
70233;SDS011;57622;42.630;23.378;2022-08-11T19:40:37;12.07;;;4.13;;
70233;SDS011;57622;42.630;23.378;2022-08-11T19:43:25;8.35;;;3.60;;
70233;SDS011;57622;42.630;23.378;2022-08-11T19:46:11;8.10;;;3.70;;
70233;SDS011;57622;42.630;23.378;2022-08-11T19:48:56;7.07;;;3.55;;
70233;SDS011;57622;42.630;23.378;2022-08-11T19:51:43;9.13;;;3.60;;
70233;SDS011;57622;42.630;23.378;2022-08-11T19:54:31;7.65;;;3.67;;